Time;durP1;ratioP1;P1;durP2;ratioP2;P2;SDS_P1;SDS_P2;PMS_P1;PMS_P2;Temp;Humidity;BMP_temperature;BMP_pressure;BME280_temperature;BME280_humidity;BME280_pressure;Samples;Min_cycle;Max_cycle;Signal;HPM_P1;HPM_P2
2023/06/20 00:00:40;;;;;;;9.48;8.38;;;;;;;14.09;100.00;96302.31;4962324;28;20567;-84
2023/06/20 00:03:06;;;;;;;10.45;9.52;;;;;;;14.12;100.00;96288.97;4962656;28;20033;-84
2023/06/20 00:05:31;;;;;;;10.48;9.48;;;;;;;14.01;100.00;96286.66;4963017;28;20022;-84
2023/06/20 00:07:57;;;;;;;8.80;8.10;;;;;;;14.20;100.00;96298.59;4962506;28;20023;-84
2023/06/20 00:10:23;;;;;;;9.85;9.05;;;;;;;14.04;100.00;96283.72;4963208;28;20133;-84
2023/06/20 00:12:49;;;;;;;9.88;8.63;;;;;;;14.06;100.00;96280.97;4961785;28;20030;-83
2023/06/20 00:15:15;;;;;;;10.43;9.32;;;;;;;13.98;100.00;96262.72;4946705;28;20023;-83
2023/06/20 00:17:40;;;;;;;9.75;8.85;;;;;;;14.05;100.00;96266.31;4945754;28;20073;-83
2023/06/20 00:20:08;;;;;;;10.10;9.05;;;;;;;14.05;100.00;96289.75;4946546;28;20418;-83
2023/06/20 00:22:34;;;;;;;10.18;8.90;;;;;;;14.05;100.00;96295.78;4962224;28;20027;-83
2023/06/20 00:25:04;;;;;;;11.05;10.02;;;;;;;13.93;100.00;96281.44;4962119;28;20118;-84
2023/06/20 00:27:30;;;;;;;11.20;10.07;;;;;;;13.93;100.00;96301.44;4962711;28;20043;-85
2023/06/20 00:29:56;;;;;;;12.55;10.75;;;;;;;13.66;100.00;96316.31;4946025;28;20654;-87
2023/06/20 00:32:21;;;;;;;10.85;9.95;;;;;;;13.68;100.00;96352.59;4962740;28;20046;-85
2023/06/20 00:34:47;;;;;;;11.20;10.20;;;;;;;13.82;100.00;96362.44;4945367;28;20057;-85
2023/06/20 00:37:12;;;;;;;11.85;10.63;;;;;;;13.75;100.00;96351.00;4946095;28;20070;-85
2023/06/20 00:39:38;;;;;;;11.30;10.40;;;;;;;13.59;100.00;96362.16;4947449;28;20026;-89
2023/06/20 00:42:04;;;;;;;11.32;10.43;;;;;;;13.60;100.00;96369.00;4947347;28;20019;-84
2023/06/20 00:44:29;;;;;;;10.15;9.25;;;;;;;13.65;100.00;96368.53;4946494;28;20969;-87
2023/06/20 00:46:55;;;;;;;11.70;10.48;;;;;;;13.70;100.00;96351.50;4945703;28;20029;-84
2023/06/20 00:49:21;;;;;;;13.10;10.25;;;;;;;13.78;100.00;96337.69;4963021;28;20628;-87
2023/06/20 00:51:46;;;;;;;10.43;9.30;;;;;;;13.74;100.00;96320.75;4945412;28;20093;-86
2023/06/20 00:54:12;;;;;;;10.38;9.57;;;;;;;13.72;100.00;96301.84;4940926;29;20027;-88
2023/06/20 00:56:37;;;;;;;10.13;9.23;;;;;;;13.80;100.00;96295.88;4953446;28;20178;-88
2023/06/20 00:59:03;;;;;;;10.65;9.60;;;;;;;13.80;100.00;96303.69;4946498;28;20125;-87
2023/06/20 01:01:31;;;;;;;9.98;9.05;;;;;;;13.61;100.00;96289.13;4949388;28;20031;-89
2023/06/20 01:03:58;;;;;;;11.13;9.07;;;;;;;13.44;100.00;96287.41;4944087;28;20053;-88
2023/06/20 01:06:32;;;;;;;10.68;9.20;;;;;;;13.37;100.00;96302.81;4947137;28;20035;-87
2023/06/20 01:09:36;;;;;;;10.27;9.27;;;;;;;13.40;100.00;96317.31;4962880;28;20026;-87
2023/06/20 01:12:25;;;;;;;11.13;9.40;;;;;;;13.54;100.00;96342.78;4952058;28;20050;-87
2023/06/20 01:14:51;;;;;;;10.65;9.60;;;;;;;13.49;100.00;96330.22;4950599;28;20030;-88
2023/06/20 01:17:36;;;;;;;10.02;9.13;;;;;;;13.53;100.00;96325.50;4962313;28;20117;-88
2023/06/20 01:20:24;;;;;;;9.60;8.90;;;;;;;13.62;100.00;96328.00;4947013;28;20507;-88
2023/06/20 01:23:12;;;;;;;11.77;9.67;;;;;;;13.51;100.00;96311.84;4945734;28;20031;-90
2023/06/20 01:25:46;;;;;;;9.68;8.70;;;;;;;13.34;100.00;96304.91;4962465;28;20826;-89
2023/06/20 01:28:27;;;;;;;11.45;9.88;;;;;;;13.32;100.00;96318.09;4947301;28;20524;-87
2023/06/20 01:30:59;;;;;;;11.20;10.18;;;;;;;13.29;100.00;96331.41;4960685;28;20031;-86
2023/06/20 01:33:30;;;;;;;9.98;9.23;;;;;;;13.43;100.00;96346.44;4961360;28;20057;-88
2023/06/20 01:35:58;;;;;;;13.43;8.98;;;;;;;13.41;100.00;96353.59;4944622;28;20485;-87
2023/06/20 01:38:25;;;;;;;10.95;8.70;;;;;;;13.34;100.00;96343.94;4960981;28;20503;-86
2023/06/20 01:40:51;;;;;;;10.52;9.63;;;;;;;13.29;100.00;96336.63;4945710;28;20050;-87
2023/06/20 01:43:19;;;;;;;9.48;8.88;;;;;;;13.37;100.00;96335.81;4944685;28;20523;-86
2023/06/20 01:45:44;;;;;;;10.80;9.75;;;;;;;13.15;100.00;96330.16;4961285;28;20109;-86
2023/06/20 01:48:11;;;;;;;10.90;10.00;;;;;;;13.14;100.00;96343.31;4943819;28;20564;-87
2023/06/20 01:50:37;;;;;;;12.40;9.68;;;;;;;13.10;100.00;96355.81;4945189;28;20059;-87
2023/06/20 01:53:04;;;;;;;11.38;10.25;;;;;;;12.93;100.00;96367.03;4960359;28;20062;-89
2023/06/20 01:55:31;;;;;;;11.43;9.60;;;;;;;12.98;100.00;96393.41;4961579;28;20529;-86
2023/06/20 01:57:58;;;;;;;11.75;10.68;;;;;;;13.04;100.00;96404.97;4945214;28;20038;-88
2023/06/20 02:00:24;;;;;;;10.98;10.18;;;;;;;13.07;100.00;96404.69;4944220;28;20093;-85
2023/06/20 02:02:50;;;;;;;11.85;10.15;;;;;;;12.97;100.00;96409.97;4944862;28;20026;-87
2023/06/20 02:05:16;;;;;;;11.25;10.25;;;;;;;13.04;100.00;96404.97;4944198;28;20118;-89
2023/06/20 02:07:43;;;;;;;11.02;9.93;;;;;;;12.98;100.00;96395.19;4945855;28;20031;-90
2023/06/20 02:10:10;;;;;;;10.60;9.65;;;;;;;12.92;100.00;96386.19;4960881;28;20042;-88
2023/06/20 02:12:36;;;;;;;11.27;10.18;;;;;;;13.00;100.00;96370.66;4961646;28;20132;-89
2023/06/20 02:15:03;;;;;;;10.57;9.88;;;;;;;13.05;100.00;96368.44;4936083;29;20074;-87
2023/06/20 02:17:29;;;;;;;10.15;9.20;;;;;;;13.02;100.00;96357.50;4972595;28;20022;-88
2023/06/20 02:19:54;;;;;;;10.40;9.43;;;;;;;12.99;100.00;96356.03;4961873;28;20035;-87
2023/06/20 02:22:23;;;;;;;10.20;9.18;;;;;;;12.86;100.00;96349.56;4960431;28;20420;-87
2023/06/20 02:24:59;;;;;;;;;;;;;;;12.80;100.00;96351.00;4961557;28;20554;-87
2023/06/20 02:27:26;;;;;;;13.13;10.05;;;;;;;12.82;100.00;96356.03;4959966;28;19918;-86
2023/06/20 02:29:54;;;;;;;11.30;10.40;;;;;;;12.78;100.00;96360.72;4961881;28;20130;-85
2023/06/20 02:32:20;;;;;;;11.90;11.00;;;;;;;12.64;100.00;96374.25;4960142;28;20050;-83
2023/06/20 02:34:47;;;;;;;10.63;9.75;;;;;;;12.55;100.00;96383.72;4961965;28;20882;-86
2023/06/20 02:37:13;;;;;;;10.68;9.68;;;;;;;12.72;100.00;96400.31;4944761;28;20113;-87
2023/06/20 02:39:39;;;;;;;10.68;9.68;;;;;;;12.78;100.00;96396.31;4959765;28;20030;-86
2023/06/20 02:42:05;;;;;;;11.15;10.18;;;;;;;12.85;100.00;96381.72;4960930;28;20026;-86
2023/06/20 02:44:31;;;;;;;10.65;9.73;;;;;;;12.90;100.00;96387.31;4943562;28;20023;-86
2023/06/20 02:47:35;;;;;;;11.25;10.27;;;;;;;12.85;100.00;96373.94;4930983;28;20042;-86
2023/06/20 02:50:09;;;;;;;11.10;10.07;;;;;;;12.74;100.00;96368.97;4962051;28;20473;-85
2023/06/20 02:52:48;;;;;;;10.55;9.45;;;;;;;12.72;100.00;96371.72;4943712;28;20427;-86
2023/06/20 02:55:20;;;;;;;9.32;8.38;;;;;;;12.71;100.00;96359.69;4945561;28;20031;-85
2023/06/20 02:57:47;;;;;;;9.82;9.02;;;;;;;12.71;100.00;96357.09;4959598;28;20031;-87
2023/06/20 03:00:13;;;;;;;15.07;10.32;;;;;;;12.69;100.00;96365.03;4960864;28;20034;-86
2023/06/20 03:02:49;;;;;;;12.95;10.55;;;;;;;12.66;100.00;96380.09;4943570;28;20939;-86
2023/06/20 03:05:16;;;;;;;10.80;9.90;;;;;;;12.64;100.00;96390.66;4962481;28;20035;-87
2023/06/20 03:07:42;;;;;;;10.10;9.40;;;;;;;12.86;100.00;96404.19;4948201;28;20114;-83
2023/06/20 03:10:08;;;;;;;11.88;10.80;;;;;;;12.82;100.00;96397.63;4964653;28;20109;-84
2023/06/20 03:12:34;;;;;;;10.55;9.50;;;;;;;12.88;100.00;96400.44;4964147;28;20104;-85
2023/06/20 03:15:00;;;;;;;12.25;10.70;;;;;;;12.79;100.00;96401.34;4946734;28;20469;-85
2023/06/20 03:17:25;;;;;;;11.38;10.25;;;;;;;12.76;100.00;96398.22;4947790;28;20045;-81
2023/06/20 03:19:51;;;;;;;10.27;9.40;;;;;;;12.79;100.00;96398.75;4963169;28;20031;-82
2023/06/20 03:22:16;;;;;;;12.45;9.98;;;;;;;12.88;100.00;96405.66;4948079;28;20035;-85
2023/06/20 03:24:42;;;;;;;11.25;10.25;;;;;;;13.00;100.00;96381.03;4947622;28;20027;-88
2023/06/20 03:27:07;;;;;;;10.32;9.30;;;;;;;13.05;100.00;96363.22;4964372;28;20054;-88
2023/06/20 03:29:33;;;;;;;14.95;13.52;;;;;;;13.31;100.00;96347.69;4965260;28;20748;-83
2023/06/20 03:31:59;;;;;;;17.20;14.52;;;;;;;14.63;100.00;96264.47;4962320;28;20754;-78
2023/06/20 03:34:24;;;;;;;12.48;10.68;;;;;;;15.72;100.00;95902.50;4947378;28;20109;-82
2023/06/20 03:36:50;;;;;;;9.55;8.25;;;;;;;16.41;100.00;95489.06;4962013;28;20543;-81
2023/06/20 03:39:15;;;;;;;7.65;6.95;;;;;;;16.93;100.00;95341.94;4963698;28;20034;-81
2023/06/20 03:41:40;;;;;;;6.80;6.30;;;;;;;17.25;100.00;95289.59;4946559;28;20026;-82
2023/06/20 03:44:06;;;;;;;8.18;7.43;;;;;;;17.72;100.00;95235.34;4962737;28;20069;-82
2023/06/20 03:46:31;;;;;;;6.47;5.90;;;;;;;17.94;100.00;95168.50;4963619;28;20089;-82
2023/06/20 03:48:57;;;;;;;9.73;6.50;;;;;;;18.18;100.00;95172.97;4962001;28;20037;-83
2023/06/20 03:51:22;;;;;;;9.10;5.95;;;;;;;18.33;100.00;95201.53;4963728;28;20102;-82
2023/06/20 03:53:48;;;;;;;7.22;6.63;;;;;;;19.17;100.00;95188.72;4946165;28;20093;-83
2023/06/20 03:56:13;;;;;;;6.07;5.65;;;;;;;19.22;100.00;95201.22;4946968;28;20046;-84
2023/06/20 03:58:39;;;;;;;6.05;5.45;;;;;;;19.38;100.00;95187.50;4962033;28;20539;-84
2023/06/20 04:01:06;;;;;;;6.35;5.20;;;;;;;19.52;100.00;95162.72;4946788;28;20027;-84
2023/06/20 04:03:32;;;;;;;8.10;7.40;;;;;;;20.00;100.00;95152.19;4946981;28;20026;-83
2023/06/20 04:06:01;;;;;;;7.63;6.93;;;;;;;20.13;100.00;95136.19;4945789;28;20041;-81
2023/06/20 04:08:29;;;;;;;7.78;6.95;;;;;;;20.60;100.00;95113.44;4947506;28;20504;-81
2023/06/20 04:10:55;;;;;;;6.70;6.20;;;;;;;20.96;100.00;95109.75;4945563;28;21053;-80
2023/06/20 04:13:21;;;;;;;6.25;5.82;;;;;;;21.09;100.00;95106.91;4947121;28;20030;-84
2023/06/20 04:15:47;;;;;;;6.43;6.03;;;;;;;20.47;100.00;95134.69;4945421;28;20034;-81
2023/06/20 04:18:12;;;;;;;6.45;5.85;;;;;;;20.50;100.00;95098.19;4962825;28;20052;-80
2023/06/20 04:20:37;;;;;;;6.43;5.90;;;;;;;20.97;100.00;95077.09;4946025;28;20041;-80
2023/06/20 04:23:03;;;;;;;5.53;5.03;;;;;;;21.73;100.00;95060.97;4961273;28;20023;-82
2023/06/20 04:25:28;;;;;;;6.13;5.63;;;;;;;22.35;100.00;95037.19;4945820;28;20069;-82
2023/06/20 04:27:55;;;;;;;6.20;5.70;;;;;;;22.23;100.00;95037.28;4960801;28;20031;-82
2023/06/20 04:30:24;;;;;;;5.67;5.27;;;;;;;23.03;100.00;95029.72;4962401;28;20094;-83
2023/06/20 04:32:53;;;;;;;8.85;5.13;;;;;;;22.52;100.00;95049.34;4944662;28;20309;-81
2023/06/20 04:35:21;;;;;;;7.75;5.35;;;;;;;22.78;100.00;95049.72;4946918;28;20029;-81
2023/06/20 04:37:51;;;;;;;5.93;5.43;;;;;;;23.47;100.00;95029.72;4961437;28;20509;-83
2023/06/20 04:40:17;;;;;;;5.93;5.30;;;;;;;23.18;100.00;95036.25;4946053;28;20023;-82
2023/06/20 04:42:42;;;;;;;7.18;5.63;;;;;;;23.85;100.00;95031.41;4946180;28;20027;-81
2023/06/20 04:45:08;;;;;;;5.70;5.07;;;;;;;23.85;100.00;95037.53;4960921;28;20093;-83
2023/06/20 04:47:34;;;;;;;5.75;5.22;;;;;;;24.21;92.10;95025.38;4962079;28;20063;-83
2023/06/20 04:50:03;;;;;;;11.57;5.93;;;;;;;24.26;91.16;95024.63;4944939;28;20047;-82
2023/06/20 04:52:32;;;;;;;6.70;6.10;;;;;;;24.32;88.53;95020.97;4959319;28;20031;-82
2023/06/20 04:55:03;;;;;;;6.75;6.32;;;;;;;24.76;87.48;95022.31;4960108;28;20022;-81
2023/06/20 04:57:29;;;;;;;6.03;5.50;;;;;;;25.47;83.05;95007.50;4961838;28;20133;-82
2023/06/20 04:59:55;;;;;;;6.10;5.63;;;;;;;25.11;81.05;95014.53;4945610;28;20452;-81
2023/06/20 05:02:20;;;;;;;6.00;5.07;;;;;;;25.20;82.13;95012.22;4960472;28;20026;-82
2023/06/20 05:04:46;;;;;;;8.68;5.88;;;;;;;25.33;81.60;95019.69;4945836;28;20094;-83
2023/06/20 05:07:11;;;;;;;6.32;5.63;;;;;;;25.71;76.86;95012.38;4930240;28;20509;-82
2023/06/20 05:09:37;;;;;;;5.57;5.13;;;;;;;27.04;73.24;95010.13;4945693;28;20038;-82
2023/06/20 05:12:02;;;;;;;6.32;5.75;;;;;;;27.14;73.82;94999.47;4960099;28;20026;-83
2023/06/20 05:14:28;;;;;;;8.45;6.18;;;;;;;27.14;70.77;95004.78;4945003;28;20027;-83
2023/06/20 05:16:53;;;;;;;5.60;5.10;;;;;;;28.52;65.98;94993.75;4961112;28;20035;-81
2023/06/20 05:19:19;;;;;;;5.50;5.10;;;;;;;29.08;61.56;94995.84;4944377;28;20031;-79
2023/06/20 05:21:44;;;;;;;5.65;5.32;;;;;;;29.04;62.06;94997.50;4960854;28;20113;-78
2023/06/20 05:24:10;;;;;;;7.45;5.63;;;;;;;28.93;62.56;95006.72;4959046;28;20078;-78
2023/06/20 05:26:35;;;;;;;5.93;5.18;;;;;;;29.61;61.36;95002.66;4944828;28;20182;-78
2023/06/20 05:29:01;;;;;;;6.38;5.78;;;;;;;29.81;59.57;95007.72;4959963;28;20390;-77
2023/06/20 05:31:26;;;;;;;5.78;5.38;;;;;;;30.73;56.37;95004.38;4960682;28;20081;-78
2023/06/20 05:33:52;;;;;;;6.63;5.63;;;;;;;31.20;54.17;94998.69;4960205;28;20031;-78
2023/06/20 05:36:17;;;;;;;6.28;5.78;;;;;;;31.31;53.63;95000.06;4961196;28;20034;-79
2023/06/20 05:38:43;;;;;;;5.75;5.25;;;;;;;31.98;51.85;94996.75;4945062;28;20114;-77
2023/06/20 05:41:10;;;;;;;6.43;5.65;;;;;;;31.51;52.02;94996.19;4960727;28;20476;-76
2023/06/20 05:43:36;;;;;;;12.48;5.53;;;;;;;31.65;51.89;95002.31;4960919;28;20369;-82
2023/06/20 05:46:01;;;;;;;8.13;5.63;;;;;;;32.15;50.63;95005.75;4960187;28;20026;-79
2023/06/20 05:48:26;;;;;;;6.55;5.38;;;;;;;31.83;51.44;95003.25;4960970;28;20042;-78
2023/06/20 05:50:52;;;;;;;10.05;5.22;;;;;;;31.97;50.98;95016.63;4944189;28;20532;-77
2023/06/20 05:53:17;;;;;;;6.67;6.00;;;;;;;31.84;50.56;95008.31;4945097;28;20162;-77
2023/06/20 05:55:43;;;;;;;7.50;5.50;;;;;;;33.12;46.84;95004.09;4961803;28;20039;-78
2023/06/20 05:58:09;;;;;;;7.05;6.07;;;;;;;33.32;44.65;95009.69;4961134;28;20039;-79
2023/06/20 06:00:34;;;;;;;6.38;5.88;;;;;;;33.81;43.93;94999.69;4960628;28;20045;-79
2023/06/20 06:03:00;;;;;;;5.53;5.13;;;;;;;34.11;42.33;95001.44;4960113;28;20039;-79
2023/06/20 06:05:25;;;;;;;6.43;5.53;;;;;;;34.02;43.42;94992.56;4959085;28;20092;-80
2023/06/20 06:07:52;;;;;;;6.03;5.53;;;;;;;33.32;44.35;95006.22;4959368;28;20118;-77
2023/06/20 06:10:17;;;;;;;5.32;4.93;;;;;;;33.37;43.84;95006.84;4962194;28;20034;-78
2023/06/20 06:12:43;;;;;;;6.23;5.77;;;;;;;34.14;43.25;95016.94;4961048;28;20034;-78
2023/06/20 06:15:09;;;;;;;5.63;5.33;;;;;;;33.36;42.98;95016.00;4944379;28;20097;-83
2023/06/20 06:17:35;;;;;;;5.88;4.93;;;;;;;34.42;42.47;95017.41;4944931;28;20060;-81
2023/06/20 06:20:00;;;;;;;5.80;5.40;;;;;;;34.59;41.64;95011.97;4943961;28;20038;-81
2023/06/20 06:22:26;;;;;;;6.20;5.70;;;;;;;34.55;41.63;95008.31;4950656;28;20460;-80
2023/06/20 06:24:51;;;;;;;6.13;5.63;;;;;;;34.34;41.91;95010.13;4931816;28;20586;-78
2023/06/20 06:27:17;;;;;;;7.25;6.28;;;;;;;33.57;42.89;95000.09;4947984;28;20400;-82
2023/06/20 06:29:44;;;;;;;6.82;6.28;;;;;;;30.66;49.65;95012.81;4952353;28;20416;-81
2023/06/20 06:32:11;;;;;;;7.10;6.57;;;;;;;28.45;58.18;95013.84;4962034;28;20191;-79
2023/06/20 06:34:36;;;;;;;6.97;6.40;;;;;;;28.36;58.70;95008.31;4960139;28;20034;-83
2023/06/20 06:37:03;;;;;;;7.43;6.57;;;;;;;28.39;57.89;94996.28;4960676;28;20042;-78
2023/06/20 06:39:29;;;;;;;6.53;6.00;;;;;;;28.02;57.55;94983.53;4947925;28;20054;-89
2023/06/20 06:41:54;;;;;;;6.82;6.20;;;;;;;28.90;54.58;94980.59;4965759;28;20604;-77
2023/06/20 06:44:20;;;;;;;6.30;5.88;;;;;;;31.74;49.10;94979.06;4964447;28;20817;-81
2023/06/20 06:46:46;;;;;;;7.60;6.88;;;;;;;33.08;44.53;94984.28;4955274;28;20027;-87
2023/06/20 06:49:11;;;;;;;8.38;7.50;;;;;;;31.89;46.43;94983.28;4950262;28;20489;-82
2023/06/20 06:51:38;;;;;;;7.50;6.90;;;;;;;29.24;57.18;94990.09;4946780;28;20027;-81
2023/06/20 06:54:04;;;;;;;7.57;6.93;;;;;;;29.11;60.33;94992.63;4947809;28;20129;-81
2023/06/20 06:56:29;;;;;;;7.30;6.80;;;;;;;29.18;58.35;94977.06;4951924;28;20645;-77
2023/06/20 06:58:57;;;;;;;8.82;7.38;;;;;;;28.42;55.69;94977.06;4977928;28;20506;-83
2023/06/20 07:01:24;;;;;;;8.35;7.13;;;;;;;27.94;61.64;94981.44;4964042;28;20062;-82
2023/06/20 07:03:49;;;;;;;8.55;6.80;;;;;;;27.63;65.05;94984.34;4964227;28;20039;-78
2023/06/20 07:06:15;;;;;;;7.45;6.88;;;;;;;28.81;59.42;94980.41;4965775;28;20046;-82
2023/06/20 07:08:40;;;;;;;7.50;6.78;;;;;;;32.28;48.20;94958.50;4962739;28;20397;-83
2023/06/20 07:11:06;;;;;;;7.50;7.00;;;;;;;32.36;47.81;94960.44;4963811;28;20062;-84
2023/06/20 07:13:31;;;;;;;10.88;7.55;;;;;;;28.99;57.58;94979.69;4946059;28;20590;-81
2023/06/20 07:15:57;;;;;;;7.75;7.18;;;;;;;28.40;63.21;94973.88;4975767;28;20066;-82
2023/06/20 07:18:22;;;;;;;8.68;7.72;;;;;;;27.95;70.79;94993.69;4956833;28;20611;-78
2023/06/20 07:20:48;;;;;;;9.23;7.63;;;;;;;27.58;68.50;94983.59;4962240;28;20019;-79
2023/06/20 07:23:13;;;;;;;7.90;7.10;;;;;;;27.65;68.79;94979.53;4962131;28;20039;-81
2023/06/20 07:25:38;;;;;;;8.38;7.72;;;;;;;27.62;71.70;94984.59;4960499;28;20081;-77
2023/06/20 07:28:04;;;;;;;10.93;8.02;;;;;;;26.74;69.17;94979.13;4962462;28;20027;-79
2023/06/20 07:30:31;;;;;;;8.70;7.80;;;;;;;27.58;70.05;94986.25;4960760;28;20034;-83
2023/06/20 07:32:56;;;;;;;8.50;7.63;;;;;;;27.06;73.06;94989.41;4962055;28;20194;-79
2023/06/20 07:35:21;;;;;;;7.50;7.00;;;;;;;27.81;70.76;94993.53;4961573;28;20564;-79
2023/06/20 07:37:47;;;;;;;8.38;7.60;;;;;;;27.69;69.75;94995.75;4961262;28;20302;-80
2023/06/20 07:40:12;;;;;;;7.75;7.13;;;;;;;27.69;70.15;94995.75;4945679;28;20046;-78
2023/06/20 07:42:38;;;;;;;7.80;7.10;;;;;;;27.57;67.90;94993.44;4960276;28;20404;-77
2023/06/20 07:45:04;;;;;;;8.52;7.70;;;;;;;27.36;70.61;94991.91;4961704;28;20076;-79
2023/06/20 07:47:29;;;;;;;7.80;7.13;;;;;;;27.14;73.36;94989.63;4962070;28;20038;-80
2023/06/20 07:49:54;;;;;;;11.55;8.38;;;;;;;26.84;73.89;94996.94;4950242;28;20470;-81
2023/06/20 07:52:20;;;;;;;9.25;8.30;;;;;;;26.58;75.75;95007.59;4959211;28;20034;-80
2023/06/20 07:54:45;;;;;;;10.77;8.30;;;;;;;26.57;80.93;95006.00;4961368;28;20027;-80
2023/06/20 07:57:11;;;;;;;7.70;7.13;;;;;;;26.27;71.87;94999.91;4961335;28;20035;-78
2023/06/20 07:59:36;;;;;;;8.70;7.90;;;;;;;26.25;81.42;95013.47;4944236;28;20030;-81
2023/06/20 08:02:02;;;;;;;8.75;8.07;;;;;;;26.19;86.00;95019.88;4962939;28;20680;-81
2023/06/20 08:04:27;;;;;;;14.43;8.43;;;;;;;26.27;87.81;95021.97;4960053;28;20114;-78
2023/06/20 08:06:53;;;;;;;9.60;8.68;;;;;;;25.77;80.20;95008.66;4961247;28;20033;-82
2023/06/20 08:09:18;;;;;;;9.73;8.82;;;;;;;25.68;84.31;95019.81;4960148;28;20109;-80
2023/06/20 08:11:43;;;;;;;9.07;8.20;;;;;;;25.90;84.88;95016.09;4962729;28;20030;-78
2023/06/20 08:14:10;;;;;;;9.63;8.50;;;;;;;25.67;90.13;95022.69;4960487;28;20022;-79
2023/06/20 08:16:35;;;;;;;9.27;8.40;;;;;;;25.30;87.73;95022.81;4960649;28;20041;-81
2023/06/20 08:19:01;;;;;;;9.93;8.23;;;;;;;25.26;89.82;95029.72;4944735;28;20034;-84
2023/06/20 08:21:26;;;;;;;8.50;7.78;;;;;;;26.13;88.78;95031.53;4946112;28;20023;-80
2023/06/20 08:23:52;;;;;;;8.75;8.02;;;;;;;26.45;77.64;95002.84;4964117;28;20848;-81
2023/06/20 08:26:17;;;;;;;9.80;7.28;;;;;;;27.19;78.61;95010.09;4962629;28;20019;-80
2023/06/20 08:28:43;;;;;;;8.68;7.95;;;;;;;27.16;80.04;95019.41;4962584;28;20030;-78
2023/06/20 08:31:08;;;;;;;8.55;7.75;;;;;;;26.79;74.68;95004.88;4942277;29;20027;-82
2023/06/20 08:33:33;;;;;;;9.05;8.15;;;;;;;26.57;75.76;95000.69;4959891;28;20081;-84
2023/06/20 08:35:59;;;;;;;8.95;8.05;;;;;;;26.05;82.95;95018.75;4961893;28;20045;-81
2023/06/20 08:38:24;;;;;;;7.57;7.07;;;;;;;27.21;81.67;95005.28;4961563;28;20137;-85
2023/06/20 08:40:50;;;;;;;8.15;7.38;;;;;;;26.63;73.45;95004.91;4947334;28;20393;-82
2023/06/20 08:43:16;;;;;;;8.95;7.22;;;;;;;26.80;78.60;95012.59;4961006;28;20034;-80
2023/06/20 08:45:42;;;;;;;7.82;7.13;;;;;;;27.38;83.13;95016.41;4962335;28;20608;-82
2023/06/20 08:48:09;;;;;;;8.20;7.60;;;;;;;27.36;81.40;95010.53;4961831;28;20031;-83
2023/06/20 08:50:36;;;;;;;8.25;7.53;;;;;;;27.67;77.14;95017.34;4962293;28;20022;-78
2023/06/20 08:53:04;;;;;;;18.67;7.83;;;;;;;26.79;71.86;95007.53;4961600;28;20027;-78
2023/06/20 08:55:30;;;;;;;8.55;7.80;;;;;;;26.70;71.56;95005.44;4962937;28;20033;-79
2023/06/20 08:57:56;;;;;;;9.68;7.53;;;;;;;26.52;75.90;95008.66;4962013;28;20886;-85
2023/06/20 09:00:23;;;;;;;8.98;7.43;;;;;;;27.13;79.74;95011.97;4943781;28;20135;-79
2023/06/20 09:02:53;;;;;;;6.63;6.22;;;;;;;27.42;75.74;95008.66;4960263;28;20044;-81
2023/06/20 09:05:19;;;;;;;7.10;6.50;;;;;;;27.52;72.34;95011.28;4959617;28;20070;-81
2023/06/20 09:07:45;;;;;;;6.78;6.30;;;;;;;27.77;79.43;95021.81;4945923;28;20023;-82
2023/06/20 09:10:14;;;;;;;9.68;7.20;;;;;;;27.18;65.34;94995.19;4960419;28;20105;-77
2023/06/20 09:12:56;;;;;;;6.88;6.32;;;;;;;27.55;69.52;94998.22;4961843;28;20101;-80
2023/06/20 09:15:23;;;;;;;6.90;6.20;;;;;;;27.91;72.71;95003.31;4946037;28;20530;-78
2023/06/20 09:17:52;;;;;;;6.93;6.15;;;;;;;27.94;69.51;94998.22;4960551;28;20113;-78
2023/06/20 09:20:18;;;;;;;17.85;6.32;;;;;;;27.96;66.59;94987.31;4960220;28;20031;-80
2023/06/20 09:22:44;;;;;;;6.72;6.07;;;;;;;27.99;68.56;94984.09;4960842;28;20519;-80
2023/06/20 09:25:10;;;;;;;6.47;5.63;;;;;;;28.25;66.79;94986.28;4961251;28;20456;-77
2023/06/20 09:27:37;;;;;;;5.78;5.35;;;;;;;28.20;65.49;94985.53;4944687;28;20411;-80
2023/06/20 09:30:04;;;;;;;7.93;6.00;;;;;;;28.11;58.34;94976.53;4961161;28;20117;-78
2023/06/20 09:32:39;;;;;;;7.40;5.95;;;;;;;28.21;68.21;94987.94;4961059;28;20054;-83
2023/06/20 09:35:07;;;;;;;6.47;5.85;;;;;;;27.97;65.57;94984.34;4960178;28;20042;-79
2023/06/20 09:37:49;;;;;;;6.25;5.65;;;;;;;27.62;59.49;94973.94;4961400;28;20069;-82
2023/06/20 09:40:16;;;;;;;6.03;5.60;;;;;;;27.85;59.78;94975.13;4959990;28;20034;-79
2023/06/20 09:42:43;;;;;;;5.85;5.43;;;;;;;28.25;64.99;94972.97;4945007;28;20030;-78
2023/06/20 09:45:09;;;;;;;6.93;6.35;;;;;;;28.58;65.64;94976.63;4960803;28;20097;-81
2023/06/20 09:47:37;;;;;;;6.28;5.88;;;;;;;27.34;54.50;94962.13;4960729;28;20027;-82
2023/06/20 09:50:13;;;;;;;6.15;5.60;;;;;;;28.10;60.76;94967.75;4961345;28;20031;-81
2023/06/20 09:53:00;;;;;;;5.70;5.20;;;;;;;28.44;61.32;94974.91;4960200;28;20022;-78
2023/06/20 09:55:26;;;;;;;5.25;4.85;;;;;;;28.19;52.37;94957.31;4961040;28;20959;-82
2023/06/20 09:57:54;;;;;;;5.20;4.90;;;;;;;27.96;53.57;94958.00;4960001;28;20035;-82
2023/06/20 10:00:22;;;;;;;7.20;5.97;;;;;;;27.41;57.07;94957.28;4960656;28;20030;-77
2023/06/20 10:02:48;;;;;;;6.27;5.83;;;;;;;27.31;58.99;94956.56;4944309;28;20030;-78
2023/06/20 10:05:15;;;;;;;28.48;8.45;;;;;;;27.17;57.70;94957.16;4960761;28;20057;-76
2023/06/20 10:07:42;;;;;;;17.80;6.90;;;;;;;27.24;60.65;94960.31;4960168;28;20845;-78
2023/06/20 10:10:08;;;;;;;6.28;5.88;;;;;;;26.83;58.12;94956.25;4960966;28;20030;-81
2023/06/20 10:12:34;;;;;;;6.28;5.82;;;;;;;26.54;57.58;94949.94;4943405;28;20867;-82
2023/06/20 10:15:01;;;;;;;6.57;5.97;;;;;;;26.64;59.54;94952.56;4961061;28;20039;-81
2023/06/20 10:17:35;;;;;;;6.55;5.95;;;;;;;26.90;64.34;94962.06;4960074;28;20031;-79
2023/06/20 10:20:04;;;;;;;6.43;5.97;;;;;;;26.88;67.38;94961.53;4944398;28;20035;-80
2023/06/20 10:22:37;;;;;;;6.97;6.28;;;;;;;26.97;77.27;94985.72;4958261;28;20026;-80
2023/06/20 10:25:13;;;;;;;6.72;6.20;;;;;;;26.73;77.25;94978.31;4959477;28;20034;-79
2023/06/20 10:27:44;;;;;;;6.40;6.00;;;;;;;26.81;72.09;94973.53;4958953;28;20023;-80
2023/06/20 10:30:12;;;;;;;7.45;6.07;;;;;;;26.66;76.11;94977.81;4944558;28;20026;-79
2023/06/20 10:33:05;;;;;;;7.72;7.03;;;;;;;26.36;74.58;94971.78;4960180;28;20051;-80
2023/06/20 10:35:31;;;;;;;7.40;6.70;;;;;;;26.10;76.51;94961.13;4951710;28;20485;-80
2023/06/20 10:38:08;;;;;;;7.05;6.40;;;;;;;26.49;76.93;94965.91;4944638;28;20035;-79
2023/06/20 10:40:35;;;;;;;6.47;6.03;;;;;;;26.54;73.40;94965.88;4955257;28;20035;-82
2023/06/20 10:43:05;;;;;;;6.78;5.97;;;;;;;26.62;75.23;94976.75;4961349;28;20467;-79
2023/06/20 10:45:31;;;;;;;6.60;6.10;;;;;;;26.90;75.62;94971.91;4959079;28;20796;-80
2023/06/20 10:47:57;;;;;;;6.80;6.15;;;;;;;26.77;69.02;94956.50;4958161;28;20033;-84
2023/06/20 10:50:23;;;;;;;6.80;6.30;;;;;;;26.36;70.96;94964.56;4959304;28;20023;-85
2023/06/20 10:52:49;;;;;;;7.10;6.38;;;;;;;26.97;68.72;94951.16;4944237;28;20042;-85
2023/06/20 10:55:22;;;;;;;7.30;6.70;;;;;;;26.45;70.00;94955.00;4944506;28;20030;-79
2023/06/20 10:57:49;;;;;;;6.65;6.00;;;;;;;26.96;66.81;94944.22;4958911;28;20041;-78
2023/06/20 11:00:18;;;;;;;5.82;5.43;;;;;;;26.84;61.60;94938.44;4960273;28;20034;-80
2023/06/20 11:02:48;;;;;;;5.55;5.15;;;;;;;27.17;58.13;94935.88;4958869;28;20046;-81
2023/06/20 11:05:14;;;;;;;6.63;5.47;;;;;;;27.60;61.35;94938.84;4943688;28;20015;-78
2023/06/20 11:07:58;;;;;;;5.90;5.40;;;;;;;27.91;59.36;94936.72;4961150;28;20033;-80
2023/06/20 11:10:31;;;;;;;6.65;5.93;;;;;;;28.06;55.20;94923.31;4958644;28;20070;-80
2023/06/20 11:12:58;;;;;;;6.35;5.95;;;;;;;27.78;57.02;94922.19;4951335;28;20138;-81
2023/06/20 11:15:24;;;;;;;5.97;5.38;;;;;;;28.10;55.13;94919.78;4942631;28;20113;-81
2023/06/20 11:17:50;;;;;;;5.80;5.40;;;;;;;28.15;56.44;94925.09;4944265;28;20483;-81
2023/06/20 11:20:19;;;;;;;6.25;5.80;;;;;;;28.21;58.45;94917.84;4959643;28;20029;-79
2023/06/20 11:22:46;;;;;;;6.18;5.68;;;;;;;28.40;58.63;94901.91;4943395;28;20109;-79
2023/06/20 11:25:12;;;;;;;5.85;5.30;;;;;;;28.43;55.94;94902.16;4961259;28;20035;-80
2023/06/20 11:27:38;;;;;;;6.85;6.13;;;;;;;27.94;56.04;94907.66;4946144;28;20037;-76